Time;durP1;ratioP1;P1;durP2;ratioP2;P2;SDS_P1;SDS_P2;PMS_P1;PMS_P2;Temp;Humidity;BMP_temperature;BMP_pressure;BME280_temperature;BME280_humidity;BME280_pressure;Samples;Min_cycle;Max_cycle;Signal;HPM_P1;HPM_P2
2021/01/21 00:00:14;;;;;;;2.28;2.10;;;;;;;6.26;63.14;99547.25;688438;28;46405;-62
2021/01/21 00:00:35;;;;;;;2.22;2.03;;;;;;;6.27;62.62;99546.22;687748;28;67506;-61
2021/01/21 00:00:57;;;;;;;2.58;2.08;;;;;;;6.26;62.64;99541.91;689666;28;3156;-61
2021/01/21 00:01:18;;;;;;;2.40;2.20;;;;;;;6.27;62.64;99544.41;688356;28;45333;-62
2021/01/21 00:01:39;;;;;;;2.20;2.10;;;;;;;6.26;62.65;99542.72;688739;28;21419;-62
2021/01/21 00:02:00;;;;;;;2.20;2.00;;;;;;;6.27;62.89;99543.53;689136;28;23474;-61
2021/01/21 00:02:22;;;;;;;3.42;2.10;;;;;;;6.26;62.61;99540.03;688680;28;22486;-61
2021/01/21 00:02:43;;;;;;;2.38;1.95;;;;;;;6.25;62.22;99545.56;688271;28;46327;-62
2021/01/21 00:03:05;;;;;;;2.17;1.98;;;;;;;6.24;62.26;99541.25;689197;28;23750;-60
2021/01/21 00:03:26;;;;;;;2.30;2.10;;;;;;;6.24;62.56;99542.06;688416;28;45328;-61
2021/01/21 00:03:48;;;;;;;2.22;2.05;;;;;;;6.24;62.24;99539.41;689186;28;22929;-61
2021/01/21 00:04:10;;;;;;;2.10;2.00;;;;;;;6.22;62.35;99533.38;688562;28;46376;-61
2021/01/21 00:04:31;;;;;;;2.13;2.03;;;;;;;6.22;62.43;99540.56;688936;28;22577;-61
2021/01/21 00:04:52;;;;;;;2.15;2.05;;;;;;;6.23;62.48;99542.25;688228;28;46272;-62
2021/01/21 00:05:13;;;;;;;2.42;2.15;;;;;;;6.24;62.56;99536.72;689061;28;22293;-60
2021/01/21 00:05:35;;;;;;;2.35;1.90;;;;;;;6.23;62.85;99534.22;689904;28;1586;-62
2021/01/21 00:05:56;;;;;;;2.00;1.90;;;;;;;6.23;62.94;99539.56;688649;28;33270;-61
2021/01/21 00:06:18;;;;;;;1.95;1.85;;;;;;;6.23;62.83;99539.56;689687;28;1969;-60
2021/01/21 00:06:40;;;;;;;1.98;1.88;;;;;;;6.22;62.60;99532.53;687494;28;47231;-61
2021/01/21 00:07:02;;;;;;;2.10;2.00;;;;;;;6.21;62.57;99534.38;689773;28;1759;-60
2021/01/21 00:07:23;;;;;;;2.00;1.90;;;;;;;6.21;62.72;99537.06;689979;28;1494;-60
2021/01/21 00:07:44;;;;;;;2.10;2.00;;;;;;;6.21;63.02;99530.88;688914;28;22410;-61
2021/01/21 00:08:06;;;;;;;2.33;2.15;;;;;;;6.20;62.94;99530.03;689162;28;23533;-60
2021/01/21 00:08:28;;;;;;;2.40;2.20;;;;;;;6.20;62.87;99530.03;689861;28;1261;-60
2021/01/21 00:08:50;;;;;;;2.20;2.10;;;;;;;6.19;62.46;99530.19;689642;28;11353;-60
2021/01/21 00:09:12;;;;;;;2.00;1.90;;;;;;;6.17;62.46;99533.06;689141;28;22952;-61
2021/01/21 00:09:33;;;;;;;2.05;1.92;;;;;;;6.18;63.06;99525.88;688893;28;36848;-61
2021/01/21 00:09:58;;;;;;;2.40;2.20;;;;;;;6.18;63.01;99533.91;689637;28;1252;-61
2021/01/21 00:10:20;;;;;;;2.10;2.00;;;;;;;6.18;62.96;99529.38;687381;28;69258;-61
2021/01/21 00:10:41;;;;;;;2.30;2.10;;;;;;;6.18;62.99;99534.75;688131;28;45278;-61
2021/01/21 00:11:02;;;;;;;2.13;2.00;;;;;;;6.19;62.92;99530.19;689357;28;22411;-61
2021/01/21 00:11:24;;;;;;;2.03;1.92;;;;;;;6.19;62.94;99530.19;689037;28;24436;-62
2021/01/21 00:11:45;;;;;;;1.95;1.85;;;;;;;6.19;62.92;99532.88;687985;28;46344;-60
2021/01/21 00:12:08;;;;;;;2.30;2.10;;;;;;;6.18;62.67;99533.91;688362;28;23176;-61
2021/01/21 00:12:29;;;;;;;2.50;2.20;;;;;;;6.17;62.88;99533.06;688439;28;44443;-61
2021/01/21 00:12:51;;;;;;;2.85;2.33;;;;;;;6.18;62.93;99531.25;688364;28;46279;-61
2021/01/21 00:13:13;;;;;;;2.58;2.28;;;;;;;6.18;62.93;99533.91;688294;28;46198;-62
2021/01/21 00:13:34;;;;;;;2.08;1.98;;;;;;;6.17;62.69;99529.56;688187;28;45289;-61
2021/01/21 00:13:56;;;;;;;2.88;2.10;;;;;;;6.18;62.65;99534.75;688906;28;23400;-61
2021/01/21 00:14:17;;;;;;;1.95;1.83;;;;;;;6.17;62.83;99535.75;689502;28;16667;-59
2021/01/21 00:14:38;;;;;;;2.25;1.85;;;;;;;6.17;62.47;99532.25;687492;28;45251;-61
2021/01/21 00:15:00;;;;;;;2.42;1.80;;;;;;;6.16;62.81;99538.59;689153;28;20833;-60
2021/01/21 00:15:22;;;;;;;2.83;1.95;;;;;;;6.16;62.59;99535.91;688284;28;47293;-61
2021/01/21 00:15:43;;;;;;;2.35;2.13;;;;;;;6.15;62.47;99535.09;688239;28;44388;-60
2021/01/21 00:16:05;;;;;;;2.28;2.00;;;;;;;6.13;62.38;99521.03;689334;28;24342;-61
2021/01/21 00:16:26;;;;;;;2.13;1.92;;;;;;;6.18;62.68;99528.56;687104;28;45293;-60
2021/01/21 00:16:48;;;;;;;2.10;1.90;;;;;;;6.16;62.56;99530.56;689168;28;22404;-60
2021/01/21 00:17:09;;;;;;;2.00;1.90;;;;;;;6.15;62.36;99528.91;685553;28;44880;-61
2021/01/21 00:17:30;;;;;;;1.95;1.85;;;;;;;6.14;62.44;99528.06;686346;28;22409;-61
2021/01/21 00:17:51;;;;;;;2.13;2.00;;;;;;;6.13;62.53;99523.72;685901;28;19046;-60
2021/01/21 00:18:13;;;;;;;2.40;2.00;;;;;;;6.12;62.62;99530.91;686541;28;14589;-60
2021/01/21 00:18:34;;;;;;;2.22;2.10;;;;;;;6.11;62.26;99528.41;685272;28;46430;-61
2021/01/21 00:18:55;;;;;;;2.78;2.00;;;;;;;6.11;62.18;99523.91;686479;28;23408;-61
2021/01/21 00:19:17;;;;;;;2.13;1.92;;;;;;;6.10;62.14;99522.22;690090;28;1447;-61
2021/01/21 00:19:39;;;;;;;2.42;2.00;;;;;;;6.09;61.83;99525.09;688930;28;22426;-62
2021/01/21 00:20:00;;;;;;;1.93;1.80;;;;;;;6.09;61.91;99533.13;689248;28;22400;-61
2021/01/21 00:20:21;;;;;;;2.30;2.00;;;;;;;6.09;62.18;99525.91;688008;28;47298;-61
2021/01/21 00:20:42;;;;;;;2.75;2.10;;;;;;;6.09;62.13;99527.75;688853;28;22434;-62
2021/01/21 00:21:04;;;;;;;2.17;2.08;;;;;;;6.08;61.89;99534.97;688986;28;24372;-61
2021/01/21 00:21:25;;;;;;;2.60;2.10;;;;;;;6.07;61.97;99527.94;688178;28;44451;-61
2021/01/21 00:21:47;;;;;;;3.22;2.17;;;;;;;6.05;61.87;99524.63;688969;28;22386;-62
2021/01/21 00:22:08;;;;;;;2.30;2.10;;;;;;;6.06;61.83;99528.94;687972;28;46309;-61
2021/01/21 00:22:29;;;;;;;2.17;2.08;;;;;;;6.06;61.76;99528.94;689126;28;24404;-61
2021/01/21 00:22:51;;;;;;;1.95;1.85;;;;;;;6.05;61.76;99526.44;689056;28;21533;-61
2021/01/21 00:23:12;;;;;;;2.70;2.08;;;;;;;6.05;61.96;99526.44;688454;28;44400;-61
2021/01/21 00:23:33;;;;;;;3.22;2.50;;;;;;;6.05;62.11;99523.75;688875;28;22431;-61
2021/01/21 00:23:57;;;;;;;2.33;2.13;;;;;;;6.05;61.99;99523.75;688824;28;22357;-61
2021/01/21 00:24:19;;;;;;;2.08;1.98;;;;;;;6.05;62.09;99521.94;686625;28;90820;-61
2021/01/21 00:24:40;;;;;;;2.10;1.90;;;;;;;6.05;62.01;99524.63;687931;28;46492;-61
2021/01/21 00:25:03;;;;;;;1.98;1.88;;;;;;;6.06;62.45;99525.44;689886;28;1447;-60
2021/01/21 00:25:25;;;;;;;2.95;2.20;;;;;;;6.04;62.37;99522.94;687439;28;46379;-61
2021/01/21 00:25:46;;;;;;;1.85;1.75;;;;;;;6.05;61.98;99526.44;688385;28;31742;-59
2021/01/21 00:26:08;;;;;;;1.90;1.80;;;;;;;6.05;61.94;99519.25;689058;28;22405;-59
2021/01/21 00:26:29;;;;;;;1.90;1.80;;;;;;;6.05;62.27;99518.41;688271;28;46021;-61
2021/01/21 00:26:50;;;;;;;2.05;1.95;;;;;;;6.05;62.36;99515.72;689031;28;23567;-61
2021/01/21 00:27:12;;;;;;;2.30;2.10;;;;;;;6.05;62.31;99513.03;689286;28;15050;-61
2021/01/21 00:27:33;;;;;;;2.10;1.90;;;;;;;6.05;62.40;99515.72;687273;28;46127;-61
2021/01/21 00:27:54;;;;;;;2.10;1.92;;;;;;;6.05;62.99;99513.88;687697;28;23398;-61
2021/01/21 00:28:16;;;;;;;2.53;2.00;;;;;;;6.05;62.80;99513.88;689080;28;21518;-61
2021/01/21 00:28:40;;;;;;;2.22;2.05;;;;;;;6.04;62.90;99522.94;688993;28;16082;-62
2021/01/21 00:29:01;;;;;;;2.20;2.00;;;;;;;6.05;63.01;99516.56;688287;28;44510;-62
2021/01/21 00:29:27;;;;;;;2.10;2.00;;;;;;;6.05;62.85;99521.06;687927;28;62039;-61
2021/01/21 00:29:50;;;;;;;2.65;2.10;;;;;;;6.04;62.97;99512.22;689956;28;1375;-61
2021/01/21 00:30:13;;;;;;;2.20;2.00;;;;;;;6.05;63.00;99515.72;689302;28;35402;-62
2021/01/21 00:30:41;;;;;;;2.00;1.90;;;;;;;6.03;63.10;99518.56;686830;28;82409;-60
2021/01/21 00:31:02;;;;;;;1.90;1.80;;;;;;;6.02;62.41;99508.88;687600;28;67940;-61
2021/01/21 00:31:24;;;;;;;2.50;2.17;;;;;;;6.03;62.25;99517.75;689876;28;1320;-61
2021/01/21 00:31:46;;;;;;;2.35;2.15;;;;;;;6.01;62.03;99517.94;689801;28;1415;-61
2021/01/21 00:32:07;;;;;;;2.17;2.08;;;;;;;6.01;61.91;99511.75;687641;28;44871;-61
2021/01/21 00:32:28;;;;;;;2.28;2.15;;;;;;;6.00;61.92;99516.25;688578;28;23539;-61
2021/01/21 00:32:50;;;;;;;2.20;2.00;;;;;;;5.99;61.82;99528.00;689998;28;1397;-61
2021/01/21 00:33:12;;;;;;;2.30;2.10;;;;;;;6.00;61.72;99515.41;689921;28;1224;-61
2021/01/21 00:33:35;;;;;;;2.38;1.90;;;;;;;5.99;62.03;99519.09;689746;28;1355;-60
2021/01/21 00:33:57;;;;;;;2.17;1.98;;;;;;;5.99;61.83;99519.09;689859;28;1345;-61
2021/01/21 00:34:19;;;;;;;1.90;1.80;;;;;;;5.98;61.66;99523.63;688735;28;23153;-61
2021/01/21 00:34:40;;;;;;;2.50;1.90;;;;;;;5.98;61.89;99517.47;688970;28;22886;-60
2021/01/21 00:35:02;;;;;;;2.70;2.10;;;;;;;5.97;61.93;99510.41;688104;28;46196;-60
2021/01/21 00:35:23;;;;;;;2.45;2.30;;;;;;;5.98;61.99;99509.41;688338;28;46119;-60
2021/01/21 00:35:44;;;;;;;2.20;2.10;;;;;;;5.97;62.00;99511.25;689090;28;19496;-61
2021/01/21 00:36:07;;;;;;;2.28;2.08;;;;;;;5.97;62.30;99519.28;689241;28;21538;-59
2021/01/21 00:36:28;;;;;;;2.00;1.90;;;;;;;5.97;62.32;99511.25;687699;28;59411;-61
2021/01/21 00:36:49;;;;;;;2.13;1.92;;;;;;;5.97;62.55;99508.56;688921;28;22411;-62
2021/01/21 00:37:10;;;;;;;2.20;2.10;;;;;;;5.97;62.37;99507.75;689077;28;23546;-61
2021/01/21 00:37:32;;;;;;;2.28;2.08;;;;;;;5.96;61.94;99512.25;689302;28;13477;-61
2021/01/21 00:37:53;;;;;;;2.00;1.90;;;;;;;5.95;61.67;99510.56;688182;28;46402;-61
2021/01/21 00:38:14;;;;;;;2.10;2.00;;;;;;;5.93;61.56;99520.63;689159;28;22490;-62
2021/01/21 00:38:36;;;;;;;2.00;1.90;;;;;;;5.94;61.60;99516.91;689161;28;21531;-62
2021/01/21 00:38:57;;;;;;;2.15;2.05;;;;;;;5.93;61.79;99509.91;688194;28;44363;-62
2021/01/21 00:39:19;;;;;;;3.00;2.08;;;;;;;5.93;61.72;99515.28;688893;28;23652;-61
2021/01/21 00:39:40;;;;;;;2.20;2.00;;;;;;;5.93;61.72;99504.56;688022;28;46702;-61
2021/01/21 00:40:01;;;;;;;2.20;2.10;;;;;;;5.91;61.43;99503.91;689050;28;22484;-62
2021/01/21 00:40:23;;;;;;;1.98;1.88;;;;;;;5.91;61.40;99511.94;688820;28;23431;-61
2021/01/21 00:40:44;;;;;;;2.30;2.10;;;;;;;5.91;61.71;99499.38;688701;28;44975;-60
2021/01/21 00:41:05;;;;;;;2.10;2.00;;;;;;;5.90;61.46;99499.53;689435;28;22563;-61
2021/01/21 00:41:27;;;;;;;2.20;2.10;;;;;;;5.90;61.40;99500.38;689571;28;22414;-61
2021/01/21 00:41:48;;;;;;;2.20;2.00;;;;;;;5.91;61.98;99511.94;688701;28;47172;-61
2021/01/21 00:42:10;;;;;;;2.10;1.90;;;;;;;5.92;62.00;99500.19;688130;28;44388;-60
2021/01/21 00:42:32;;;;;;;1.98;1.80;;;;;;;5.90;62.01;99496.88;688063;28;40804;-61
2021/01/21 00:42:53;;;;;;;2.10;2.00;;;;;;;5.90;61.86;99494.19;688747;28;43061;-61
2021/01/21 00:43:15;;;;;;;2.45;2.10;;;;;;;5.89;61.45;99493.38;689660;28;22398;-60
2021/01/21 00:43:37;;;;;;;2.75;2.17;;;;;;;5.89;61.47;99498.72;687407;28;65873;-59
2021/01/21 00:43:59;;;;;;;2.45;2.20;;;;;;;5.88;61.45;99497.03;688843;28;46415;-61
2021/01/21 00:44:20;;;;;;;2.40;2.00;;;;;;;5.90;61.54;99494.19;689716;28;22470;-61
2021/01/21 00:44:44;;;;;;;2.22;2.00;;;;;;;5.89;61.51;99497.88;683751;28;93245;-61
2021/01/21 00:45:07;;;;;;;2.33;1.90;;;;;;;5.89;61.80;99498.72;686213;28;22816;-61
2021/01/21 00:45:28;;;;;;;2.83;2.08;;;;;;;5.89;62.16;99497.88;684929;28;69491;-62
2021/01/21 00:45:51;;;;;;;2.28;2.08;;;;;;;5.90;62.10;99496.88;686435;28;23527;-61
2021/01/21 00:46:12;;;;;;;2.15;1.95;;;;;;;5.90;62.21;99486.16;687116;28;1349;-58
2021/01/21 00:46:34;;;;;;;2.10;1.90;;;;;;;5.88;61.80;99494.38;687516;28;21570;-61
2021/01/21 00:46:55;;;;;;;2.10;1.90;;;;;;;5.87;61.37;99489.19;688599;28;47194;-61
2021/01/21 00:47:17;;;;;;;2.28;1.90;;;;;;;5.87;61.25;99490.00;689440;28;22431;-58
2021/01/21 00:47:38;;;;;;;2.10;1.98;;;;;;;5.88;61.56;99493.53;688808;28;44394;-61
2021/01/21 00:48:00;;;;;;;2.30;2.10;;;;;;;5.87;61.48;99498.03;688972;28;23500;-59
2021/01/21 00:48:21;;;;;;;2.20;2.10;;;;;;;5.87;61.32;99490.00;688866;28;46341;-61
2021/01/21 00:48:42;;;;;;;3.45;2.20;;;;;;;5.86;61.30;99483.00;689573;28;1351;-60
2021/01/21 00:49:04;;;;;;;3.30;2.05;;;;;;;5.86;61.15;99487.50;689809;28;23361;-61
2021/01/21 00:49:26;;;;;;;2.13;2.00;;;;;;;5.87;61.25;99489.19;688384;28;46212;-61
2021/01/21 00:49:47;;;;;;;2.00;1.90;;;;;;;5.86;61.30;99485.69;688695;28;46341;-61
2021/01/21 00:50:09;;;;;;;1.98;1.88;;;;;;;5.86;61.22;99487.50;690136;28;12948;-61
2021/01/21 00:50:30;;;;;;;2.22;1.85;;;;;;;5.84;60.86;99495.72;688876;28;46344;-61
2021/01/21 00:50:51;;;;;;;2.63;1.98;;;;;;;5.84;60.91;99490.34;689576;28;22862;-61
2021/01/21 00:51:13;;;;;;;2.10;2.00;;;;;;;5.84;61.09;99490.34;689505;28;22418;-60
2021/01/21 00:51:35;;;;;;;2.10;2.00;;;;;;;5.84;61.21;99486.84;687959;28;45305;-59
2021/01/21 00:51:56;;;;;;;2.28;2.08;;;;;;;5.84;61.37;99489.53;688551;28;45270;-58
2021/01/21 00:52:17;;;;;;;2.00;1.90;;;;;;;5.85;61.56;99494.72;689877;28;10160;-60
2021/01/21 00:52:38;;;;;;;2.38;1.95;;;;;;;5.85;61.73;99493.91;689642;28;21558;-59
2021/01/21 00:53:00;;;;;;;2.30;2.10;;;;;;;5.85;61.72;99502.75;686297;28;21594;-59
2021/01/21 00:53:21;;;;;;;2.30;2.10;;;;;;;5.81;61.33;99492.56;684327;28;46283;-59
2021/01/21 00:53:43;;;;;;;2.40;2.20;;;;;;;5.84;61.36;99500.25;683461;28;46328;-60
2021/01/21 00:54:04;;;;;;;2.25;2.08;;;;;;;5.84;61.43;99489.53;682947;28;21524;-61
2021/01/21 00:54:30;;;;;;;2.15;2.05;;;;;;;5.83;61.32;99502.09;678838;28;137751;-61
2021/01/21 00:54:52;;;;;;;2.05;1.95;;;;;;;5.84;61.40;99494.91;681689;28;23694;-61
2021/01/21 00:55:13;;;;;;;2.10;2.00;;;;;;;5.83;61.14;99490.53;681965;28;47537;-61
2021/01/21 00:55:36;;;;;;;2.25;2.05;;;;;;;5.83;61.59;99502.09;679352;29;46362;-61
2021/01/21 00:55:57;;;;;;;2.05;1.90;;;;;;;5.82;61.05;99488.88;680385;28;45286;-60
2021/01/21 00:56:19;;;;;;;2.20;2.10;;;;;;;5.81;60.72;99496.06;682935;28;23541;-61
2021/01/21 00:56:44;;;;;;;2.20;2.10;;;;;;;5.80;60.83;99499.78;679017;28;138375;-61
2021/01/21 00:57:05;;;;;;;2.10;2.00;;;;;;;5.80;60.59;99496.25;684085;28;10165;-61
2021/01/21 00:57:26;;;;;;;2.00;1.90;;;;;;;5.80;61.05;99496.25;685123;28;22373;-60
2021/01/21 00:57:50;;;;;;;2.13;2.03;;;;;;;5.81;61.41;99501.44;681441;28;92319;-59
2021/01/21 00:58:12;;;;;;;2.00;1.90;;;;;;;5.81;61.33;99495.25;686300;28;22393;-61
2021/01/21 00:58:33;;;;;;;2.72;1.92;;;;;;;5.80;60.93;99493.56;684176;28;46244;-61
2021/01/21 00:58:56;;;;;;;2.30;1.90;;;;;;;5.80;61.10;99499.78;681756;28;69503;-61
2021/01/21 00:59:18;;;;;;;2.35;1.95;;;;;;;5.79;60.48;99506.13;680884;29;21503;-60
2021/01/21 00:59:39;;;;;;;2.83;2.10;;;;;;;5.78;61.15;99499.97;680876;28;46418;-60
2021/01/21 01:00:06;;;;;;;2.03;1.92;;;;;;;5.78;60.84;99499.09;681397;28;92391;-61
2021/01/21 01:00:29;;;;;;;2.17;2.00;;;;;;;5.78;60.92;99504.47;684017;28;59822;-60
2021/01/21 01:00:54;;;;;;;2.30;2.10;;;;;;;5.78;61.20;99502.63;684337;28;57721;-60
2021/01/21 01:01:15;;;;;;;2.00;1.90;;;;;;;5.77;61.09;99500.97;686266;28;69173;-61
2021/01/21 01:01:37;;;;;;;2.03;1.92;;;;;;;5.77;60.95;99497.44;690249;28;1375;-61
2021/01/21 01:02:04;;;;;;;2.22;1.90;;;;;;;5.77;61.06;99503.63;687631;28;60122;-61
2021/01/21 01:02:26;;;;;;;2.20;2.00;;;;;;;5.77;61.26;99503.63;686711;28;4173;-61
2021/01/21 01:02:48;;;;;;;2.00;1.83;;;;;;;5.78;61.19;99496.41;684965;28;22514;-61
2021/01/21 01:03:09;;;;;;;2.22;2.00;;;;;;;5.77;61.27;99500.97;686070;28;46434;-60
2021/01/21 01:03:34;;;;;;;2.25;2.03;;;;;;;5.77;61.33;99500.13;680220;28;113670;-61
2021/01/21 01:03:56;;;;;;;2.20;2.00;;;;;;;5.77;61.14;99505.50;682647;28;44506;-61
2021/01/21 01:04:17;;;;;;;1.98;1.88;;;;;;;5.76;60.81;99501.97;685332;28;15184;-60
2021/01/21 01:04:40;;;;;;;1.77;1.67;;;;;;;5.76;60.90;99503.81;686576;28;45399;-61
2021/01/21 01:05:05;;;;;;;2.28;2.08;;;;;;;5.75;60.70;99484.22;686330;28;91889;-60
2021/01/21 01:05:26;;;;;;;1.95;1.85;;;;;;;5.75;60.53;99496.78;686966;28;69428;-61
2021/01/21 01:05:48;;;;;;;2.20;2.00;;;;;;;5.73;60.54;99488.91;690094;28;23452;-60
2021/01/21 01:06:09;;;;;;;2.20;2.00;;;;;;;5.74;60.68;99495.13;690177;28;47475;-60
2021/01/21 01:06:31;;;;;;;2.10;1.95;;;;;;;5.74;60.73;99489.78;688295;28;47430;-61
2021/01/21 01:06:53;;;;;;;2.13;1.88;;;;;;;5.73;60.69;99488.91;686759;28;46393;-62
2021/01/21 01:07:15;;;;;;;2.00;1.90;;;;;;;5.74;60.82;99495.94;687626;28;23601;-61
2021/01/21 01:07:36;;;;;;;2.05;1.92;;;;;;;5.74;60.88;99487.09;684433;28;46413;-60
2021/01/21 01:07:58;;;;;;;3.20;2.00;;;;;;;5.73;60.47;99490.78;684982;28;23565;-61
2021/01/21 01:08:19;;;;;;;2.63;2.00;;;;;;;5.73;60.50;99496.13;685368;28;44421;-61
2021/01/21 01:08:41;;;;;;;2.03;1.92;;;;;;;5.74;60.80;99492.44;686280;28;5506;-62
2021/01/21 01:09:04;;;;;;;1.83;1.73;;;;;;;5.74;60.78;99484.41;684612;28;92242;-60
2021/01/21 01:09:25;;;;;;;1.90;1.80;;;;;;;5.74;60.86;99485.22;687237;28;22376;-59
2021/01/21 01:09:47;;;;;;;2.40;1.88;;;;;;;5.74;60.73;99487.09;688214;28;46407;-61
2021/01/21 01:10:12;;;;;;;1.90;1.80;;;;;;;5.73;60.56;99483.56;687078;28;70326;-57
2021/01/21 01:10:33;;;;;;;2.00;1.90;;;;;;;5.72;61.04;99487.25;688405;28;50263;-61
2021/01/21 01:11:00;;;;;;;2.00;1.90;;;;;;;5.74;61.02;99487.91;682778;28;137980;-61
2021/01/21 01:11:25;;;;;;;2.38;2.17;;;;;;;5.73;60.54;99486.22;679690;28;114922;-59
2021/01/21 01:11:47;;;;;;;2.05;1.95;;;;;;;5.73;60.89;99480.88;682189;28;46349;-61
2021/01/21 01:12:09;;;;;;;2.10;1.90;;;;;;;5.73;60.69;99488.91;684803;28;46298;-61
2021/01/21 01:12:32;;;;;;;2.00;1.90;;;;;;;5.73;60.38;99485.41;681494;28;69425;-61
2021/01/21 01:12:54;;;;;;;1.80;1.70;;;;;;;5.73;60.46;99480.88;685216;28;21539;-61
2021/01/21 01:13:15;;;;;;;2.08;1.98;;;;;;;5.74;60.71;99485.22;686752;28;47360;-61
2021/01/21 01:13:37;;;;;;;2.15;1.95;;;;;;;5.75;60.52;99486.06;688033;28;45251;-61
2021/01/21 01:14:02;;;;;;;2.15;2.03;;;;;;;5.73;60.69;99483.56;683120;28;113476;-62
2021/01/21 01:14:24;;;;;;;2.60;1.88;;;;;;;5.73;60.39;99486.22;687072;28;24413;-60
2021/01/21 01:14:46;;;;;;;2.72;1.80;;;;;;;5.73;60.48;99486.22;688348;28;44404;-61
2021/01/21 01:15:09;;;;;;;2.00;1.90;;;;;;;5.74;60.67;99484.41;688039;28;46431;-61
2021/01/21 01:15:33;;;;;;;2.42;2.00;;;;;;;5.74;60.70;99487.91;686695;28;92305;-60
2021/01/21 01:15:55;;;;;;;2.05;1.95;;;;;;;5.74;60.69;99476.38;688376;28;69024;-61
2021/01/21 01:16:22;;;;;;;2.15;2.05;;;;;;;5.74;60.91;99482.56;687073;28;136349;-61
2021/01/21 01:16:56;;;;;;;2.28;2.00;;;;;;;5.74;60.54;99477.19;686686;28;138580;-61
2021/01/21 01:17:17;;;;;;;2.42;1.90;;;;;;;5.73;60.57;99482.72;690674;28;1406;-62
2021/01/21 01:17:45;;;;;;;1.90;1.80;;;;;;;5.75;60.44;99478.03;684218;28;139695;-61
2021/01/21 01:18:07;;;;;;;2.05;1.70;;;;;;;5.75;60.67;99480.69;686268;28;69840;-61
2021/01/21 01:18:30;;;;;;;3.13;2.00;;;;;;;5.75;60.61;99470.84;685305;28;46461;-59
2021/01/21 01:18:51;;;;;;;2.13;2.00;;;;;;;5.76;60.64;99479.69;683552;28;45104;-61
2021/01/21 01:19:18;;;;;;;1.83;1.73;;;;;;;5.76;60.56;99477.84;683070;28;60820;-60
2021/01/21 01:19:39;;;;;;;2.08;1.98;;;;;;;5.76;60.73;99475.16;684306;28;44391;-61
2021/01/21 01:20:04;;;;;;;2.00;1.90;;;;;;;5.77;60.79;99484.06;684164;28;70117;-62
2021/01/21 01:20:27;;;;;;;2.13;1.92;;;;;;;5.77;60.78;99476.03;684119;28;64533;-59
2021/01/21 01:20:48;;;;;;;2.05;1.92;;;;;;;5.78;60.83;99472.31;685408;28;32829;-61
2021/01/21 01:21:10;;;;;;;2.17;1.63;;;;;;;5.78;60.82;99469.63;686086;28;33023;-60
2021/01/21 01:21:32;;;;;;;2.60;1.83;;;;;;;5.79;60.74;99476.66;682668;28;38356;-61
2021/01/21 01:21:54;;;;;;;1.83;1.73;;;;;;;5.80;60.79;99472.13;684095;28;46409;-60
2021/01/21 01:22:19;;;;;;;2.30;1.90;;;;;;;5.80;60.43;99467.63;681064;28;116097;-60
2021/01/21 01:22:40;;;;;;;2.28;1.73;;;;;;;5.79;60.11;99476.66;683209;28;22395;-61
2021/01/21 01:23:02;;;;;;;2.00;1.80;;;;;;;5.80;60.37;99472.13;683158;28;41349;-60
2021/01/21 01:23:27;;;;;;;1.97;1.87;;;;;;;5.80;60.57;99464.09;679370;28;108303;-61
2021/01/21 01:23:48;;;;;;;1.98;1.88;;;;;;;5.80;60.55;99473.00;680205;29;45407;-62
2021/01/21 01:24:10;;;;;;;2.63;1.90;;;;;;;5.78;60.57;99465.13;682437;28;22518;-61
2021/01/21 01:24:35;;;;;;;2.20;1.73;;;;;;;5.78;60.68;99475.84;681237;28;138241;-61
2021/01/21 01:24:57;;;;;;;2.33;2.08;;;;;;;5.80;60.84;99475.66;682687;28;45329;-61
2021/01/21 01:25:19;;;;;;;2.60;1.70;;;;;;;5.80;60.52;99469.44;681675;28;30834;-61
2021/01/21 01:25:42;;;;;;;1.90;1.80;;;;;;;5.80;60.28;99473.00;681440;28;45096;-61
2021/01/21 01:26:03;;;;;;;2.00;1.90;;;;;;;5.81;60.37;99471.13;683003;28;46306;-61
2021/01/21 01:26:24;;;;;;;1.83;1.73;;;;;;;5.80;60.52;99469.44;684002;28;22512;-61
2021/01/21 01:26:51;;;;;;;1.75;1.65;;;;;;;5.82;60.60;99467.44;680595;28;138009;-61
2021/01/21 01:27:16;;;;;;;2.05;1.92;;;;;;;5.81;60.49;99473.81;685858;28;100063;-60
2021/01/21 01:27:40;;;;;;;2.45;2.00;;;;;;;5.80;60.45;99467.63;691239;28;23531;-59
2021/01/21 01:28:02;;;;;;;1.92;1.83;;;;;;;5.80;60.77;99470.31;688643;28;102635;-61
2021/01/21 01:28:23;;;;;;;2.00;1.90;;;;;;;5.81;60.88;99465.78;691965;28;10259;-61
2021/01/21 01:28:45;;;;;;;1.90;1.80;;;;;;;5.81;60.74;99468.44;686647;28;45358;-61
2021/01/21 01:29:07;;;;;;;1.90;1.80;;;;;;;5.82;60.53;99470.94;687705;28;39386;-60
2021/01/21 01:29:29;;;;;;;1.80;1.70;;;;;;;5.80;60.47;99473.00;687599;28;45360;-59
2021/01/21 01:29:50;;;;;;;1.70;1.60;;;;;;;5.81;60.48;99473.81;687883;28;22416;-61
2021/01/21 01:30:13;;;;;;;3.25;1.90;;;;;;;5.81;60.59;99465.78;687357;28;46407;-61
2021/01/21 01:30:34;;;;;;;3.05;1.70;;;;;;;5.82;60.38;99470.13;688566;28;45516;-60
2021/01/21 01:30:57;;;;;;;2.00;1.80;;;;;;;5.81;60.54;99468.44;691091;28;22217;-61
2021/01/21 01:31:18;;;;;;;2.10;2.00;;;;;;;5.81;60.63;99474.63;688209;28;67467;-61
2021/01/21 01:31:40;;;;;;;2.10;1.90;;;;;;;5.82;60.58;99467.44;688765;28;22372;-60
2021/01/21 01:32:02;;;;;;;1.90;1.80;;;;;;;5.83;60.59;99466.41;684386;28;69115;-61
2021/01/21 01:32:33;;;;;;;1.90;1.80;;;;;;;5.83;60.75;99469.09;681831;28;135976;-61
2021/01/21 01:32:55;;;;;;;1.88;1.77;;;;;;;5.83;60.80;99471.78;685389;28;46281;-62
2021/01/21 01:33:17;;;;;;;2.60;1.80;;;;;;;5.83;60.93;99469.09;685894;28;46320;-61
2021/01/21 01:33:39;;;;;;;1.92;1.77;;;;;;;5.83;60.97;99464.59;687895;28;22482;-60
2021/01/21 01:34:00;;;;;;;2.47;2.28;;;;;;;5.84;60.90;99468.09;687480;28;46332;-60
2021/01/21 01:34:23;;;;;;;2.08;1.98;;;;;;;5.83;61.08;99463.75;685678;28;69654;-61
2021/01/21 01:35:03;;;;;;;1.73;1.63;;;;;;;5.82;60.70;99462.91;682150;28;138347;-60
2021/01/21 01:35:25;;;;;;;1.55;1.55;;;;;;;5.83;60.75;99463.75;682188;28;69484;-61
2021/01/21 01:35:49;;;;;;;2.00;1.90;;;;;;;5.85;60.71;99465.25;680755;28;93009;-61
2021/01/21 01:36:10;;;;;;;4.00;1.92;;;;;;;5.85;61.03;99459.88;684796;28;22392;-60
2021/01/21 01:36:32;;;;;;;4.47;2.00;;;;;;;5.85;61.09;99462.56;684923;28;46408;-61
2021/01/21 01:36:56;;;;;;;2.58;1.83;;;;;;;5.85;61.23;99461.75;685616;28;68007;-61
2021/01/21 01:37:18;;;;;;;2.78;1.80;;;;;;;5.85;60.96;99457.19;685262;28;69301;-60
2021/01/21 01:37:47;;;;;;;1.85;1.75;;;;;;;5.85;61.02;99461.75;681917;28;137835;-60
2021/01/21 01:38:13;;;;;;;1.70;1.60;;;;;;;5.85;61.11;99461.75;681066;28;160923;-61
2021/01/21 01:38:36;;;;;;;1.75;1.65;;;;;;;5.85;61.20;99456.38;685421;28;44342;-60
2021/01/21 01:39:17;;;;;;;1.92;1.83;;;;;;;5.85;61.10;99451.84;680325;28;137678;-61
2021/01/21 01:39:44;;;;;;;1.83;1.73;;;;;;;5.85;61.19;99449.16;681802;28;133464;-60
2021/01/21 01:40:26;;;;;;;1.90;1.80;;;;;;;5.86;61.17;99458.03;685195;28;137703;-62
2021/01/21 01:40:51;;;;;;;1.92;1.83;;;;;;;5.86;61.43;99452.66;684691;28;69471;-60
2021/01/21 01:41:13;;;;;;;1.80;1.70;;;;;;;5.86;61.36;99456.19;681398;28;90727;-61
2021/01/21 01:41:34;;;;;;;1.90;1.70;;;;;;;5.86;61.54;99450.84;684788;28;23551;-61
2021/01/21 01:41:55;;;;;;;1.90;1.80;;;;;;;5.87;61.44;99455.16;686045;28;21692;-61
2021/01/21 01:42:17;;;;;;;2.00;1.90;;;;;;;5.88;61.40;99453.34;683366;28;21470;-60
2021/01/21 01:42:44;;;;;;;1.73;1.63;;;;;;;5.86;61.45;99453.53;678116;28;157782;-61
2021/01/21 01:43:05;;;;;;;2.03;1.80;;;;;;;5.86;61.01;99448.16;680773;28;69445;-60
2021/01/21 01:43:27;;;;;;;2.67;1.80;;;;;;;5.87;61.14;99446.31;681603;28;46406;-60
2021/01/21 01:43:49;;;;;;;2.05;1.73;;;;;;;5.88;61.24;99461.38;683548;28;18716;-61
2021/01/21 01:44:11;;;;;;;1.88;1.77;;;;;;;5.87;61.32;99448.97;682711;28;66772;-61
2021/01/21 01:44:32;;;;;;;1.88;1.77;;;;;;;5.88;61.47;99454.16;687092;28;22365;-61
2021/01/21 01:44:53;;;;;;;1.70;1.60;;;;;;;5.88;61.38;99451.50;686799;28;22483;-61
2021/01/21 01:45:15;;;;;;;1.80;1.70;;;;;;;5.87;61.48;99441.78;686923;28;45297;-60
2021/01/21 01:45:42;;;;;;;1.90;1.80;;;;;;;5.88;61.47;99448.81;687351;28;60375;-61
2021/01/21 01:46:08;;;;;;;1.80;1.70;;;;;;;5.88;61.10;99447.97;689305;28;13652;-61
2021/01/21 01:46:31;;;;;;;1.90;1.80;;;;;;;5.87;61.22;99452.50;684796;28;70361;-60
2021/01/21 01:46:53;;;;;;;1.80;1.70;;;;;;;5.87;61.11;99447.13;686245;28;1288;-59
2021/01/21 01:47:17;;;;;;;1.75;1.65;;;;;;;5.87;61.18;99452.50;681140;28;95372;-59
2021/01/21 01:47:41;;;;;;;1.98;1.88;;;;;;;5.87;61.07;99452.50;683754;28;20431;-60
2021/01/21 01:48:04;;;;;;;1.80;1.70;;;;;;;5.87;61.24;99449.81;681794;28;93107;-60
2021/01/21 01:48:31;;;;;;;1.90;1.80;;;;;;;5.88;61.35;99451.50;679094;28;160955;-61